Time,TemperatureF,DewpointF,PressureIn,WindDirection,WindDirectionDegrees,WindSpeedMPH,WindSpeedGustMPH,Humidity,HourlyPrecipIn,Conditions,Clouds,dailyrainin,SolarRadiationWatts/m^2,SoftwareType,DateUTC
2013-04-18 00:22:00,21.0,16.0,-100.00,NNE,15,9.0,19.0,82,0.00,,,0.22,255.000000,,2013-04-18 00:22:00,
2013-04-18 00:32:00,21.0,16.0,-100.00,NNE,15,9.0,19.0,82,0.00,,,0.22,255.000000,,2013-04-18 00:32:00,
2013-04-18 00:42:00,21.0,16.0,-100.00,NNE,15,9.0,19.0,82,0.00,,,0.22,255.000000,,2013-04-18 00:42:00,
2013-04-18 00:50:00,20.0,14.0,-100.00,North,5,9.0,17.0,78,0.00,,,0.22,171.000000,,2013-04-18 00:50:00,
2013-04-18 01:12:00,20.0,14.0,-100.00,North,5,9.0,17.0,78,0.00,,,0.22,171.000000,,2013-04-18 01:12:00,
2013-04-18 01:22:00,20.0,14.0,-100.00,North,5,9.0,17.0,78,0.00,,,0.22,171.000000,,2013-04-18 01:22:00,
2013-04-18 01:32:00,20.0,14.0,-100.00,North,5,9.0,17.0,78,0.00,,,0.22,171.000000,,2013-04-18 01:32:00,
2013-04-18 01:42:00,20.0,14.0,-100.00,North,5,9.0,17.0,78,0.00,,,0.22,171.000000,,2013-04-18 01:42:00,
2013-04-18 01:50:00,19.0,13.0,-100.00,North,1,8.0,18.0,78,0.00,,,0.22,69.000000,,2013-04-18 01:50:00,
2013-04-18 02:22:00,19.0,13.0,-100.00,North,1,8.0,18.0,78,0.00,,,0.22,69.000000,,2013-04-18 02:22:00,
2013-04-18 02:32:00,19.0,13.0,-100.00,North,1,8.0,18.0,78,0.00,,,0.22,69.000000,,2013-04-18 02:32:00,
2013-04-18 02:42:00,19.0,13.0,-100.00,North,1,8.0,18.0,78,0.00,,,0.22,69.000000,,2013-04-18 02:42:00,
2013-04-18 02:50:00,17.0,10.0,-100.00,North,356,8.0,18.0,74,0.00,,,0.22,1.000000,,2013-04-18 02:50:00,
2013-04-18 03:22:00,17.0,10.0,-100.00,North,356,8.0,18.0,74,0.00,,,0.22,1.000000,,2013-04-18 03:22:00,
2013-04-18 03:33:00,17.0,10.0,-100.00,North,356,8.0,18.0,74,0.00,,,0.22,1.000000,,2013-04-18 03:33:00,
2013-04-18 03:43:00,17.0,10.0,-100.00,North,356,8.0,18.0,74,0.00,,,0.22,1.000000,,2013-04-18 03:43:00,
2013-04-18 03:50:00,15.0,9.0,-100.00,North,354,7.0,15.0,76,0.00,,,0.22,0.000000,,2013-04-18 03:50:00,
2013-04-18 04:23:00,15.0,9.0,-100.00,North,354,7.0,15.0,76,0.00,,,0.22,0.000000,,2013-04-18 04:23:00,
2013-04-18 04:33:00,15.0,9.0,-100.00,North,354,7.0,15.0,76,0.00,,,0.22,0.000000,,2013-04-18 04:33:00,
2013-04-18 04:43:00,15.0,9.0,-100.00,North,354,7.0,15.0,76,0.00,,,0.22,0.000000,,2013-04-18 04:43:00,
2013-04-18 04:50:00,13.0,7.0,-100.00,North,354,8.0,13.0,77,0.00,,,0.22,0.000000,,2013-04-18 04:50:00,
2013-04-18 05:12:00,13.0,7.0,-100.00,North,354,8.0,13.0,77,0.00,,,0.22,0.000000,,2013-04-18 05:12:00,
2013-04-18 05:22:00,13.0,7.0,-100.00,North,354,8.0,13.0,77,0.00,,,0.22,0.000000,,2013-04-18 05:22:00,
2013-04-18 05:32:00,13.0,7.0,-100.00,North,354,8.0,13.0,77,0.00,,,0.22,0.000000,,2013-04-18 05:32:00,
2013-04-18 05:42:00,13.0,7.0,-100.00,North,354,8.0,13.0,77,0.00,,,0.22,0.000000,,2013-04-18 05:42:00,
2013-04-18 05:50:00,12.0,6.0,-100.00,NNW,341,5.0,12.0,76,0.00,,,0.22,0.000000,,2013-04-18 05:50:00,
2013-04-18 06:22:00,12.0,6.0,-100.00,NNW,341,5.0,12.0,76,0.00,,,0.22,0.000000,,2013-04-18 06:22:00,
2013-04-18 06:32:00,12.0,6.0,-100.00,NNW,341,5.0,12.0,76,0.00,,,0.22,0.000000,,2013-04-18 06:32:00,
2013-04-18 06:42:00,12.0,6.0,-100.00,NNW,341,5.0,12.0,76,0.00,,,0.22,0.000000,,2013-04-18 06:42:00,
2013-04-18 06:50:00,9.0,5.0,-100.00,WSW,242,3.0,7.0,82,0.00,,,0.22,0.000000,,2013-04-18 06:50:00,
2013-04-18 07:12:00,9.0,5.0,-100.00,WSW,242,3.0,7.0,82,0.00,,,0.22,0.000000,,2013-04-18 07:12:00,
2013-04-18 07:22:00,9.0,5.0,-100.00,WSW,242,3.0,7.0,82,0.00,,,0.22,0.000000,,2013-04-18 07:22:00,
2013-04-18 07:32:00,9.0,5.0,-100.00,WSW,242,3.0,7.0,82,0.00,,,0.22,0.000000,,2013-04-18 07:32:00,
2013-04-18 07:42:00,9.0,5.0,-100.00,WSW,242,3.0,7.0,82,0.00,,,0.22,0.000000,,2013-04-18 07:42:00,
2013-04-18 07:50:00,11.0,6.0,-100.00,WSW,244,4.0,8.0,78,0.00,,,0.22,0.000000,,2013-04-18 07:50:00,
2013-04-18 08:12:00,11.0,6.0,-100.00,WSW,244,4.0,8.0,78,0.00,,,0.22,0.000000,,2013-04-18 08:12:00,
2013-04-18 08:22:00,11.0,6.0,-100.00,WSW,244,4.0,8.0,78,0.00,,,0.22,0.000000,,2013-04-18 08:22:00,
2013-04-18 08:32:00,11.0,6.0,-100.00,WSW,244,4.0,8.0,78,0.00,,,0.22,0.000000,,2013-04-18 08:32:00,
2013-04-18 08:42:00,11.0,6.0,-100.00,WSW,244,4.0,8.0,78,0.00,,,0.22,0.000000,,2013-04-18 08:42:00,
2013-04-18 08:50:00,10.0,5.0,-100.00,WSW,245,4.0,8.0,79,0.00,,,0.22,0.000000,,2013-04-18 08:50:00,
2013-04-18 09:12:00,10.0,5.0,-100.00,WSW,245,4.0,8.0,79,0.00,,,0.22,0.000000,,2013-04-18 09:12:00,
2013-04-18 09:22:00,10.0,5.0,-100.00,WSW,245,4.0,8.0,79,0.00,,,0.22,0.000000,,2013-04-18 09:22:00,
2013-04-18 09:32:00,10.0,5.0,-100.00,WSW,245,4.0,8.0,79,0.00,,,0.22,0.000000,,2013-04-18 09:32:00,
2013-04-18 09:42:00,10.0,5.0,-100.00,WSW,245,4.0,8.0,79,0.00,,,0.22,0.000000,,2013-04-18 09:42:00,
2013-04-18 09:50:00,11.0,6.0,-100.00,WSW,251,4.0,8.0,78,0.00,,,0.22,0.000000,,2013-04-18 09:50:00,
2013-04-18 10:12:00,11.0,6.0,-100.00,WSW,251,4.0,8.0,78,0.00,,,0.22,0.000000,,2013-04-18 10:12:00,
2013-04-18 10:23:00,11.0,6.0,-100.00,WSW,251,4.0,8.0,78,0.00,,,0.22,0.000000,,2013-04-18 10:23:00,
2013-04-18 10:32:00,11.0,6.0,-100.00,WSW,251,4.0,8.0,78,0.00,,,0.22,0.000000,,2013-04-18 10:32:00,
2013-04-18 10:42:00,11.0,6.0,-100.00,WSW,251,4.0,8.0,78,0.00,,,0.22,0.000000,,2013-04-18 10:42:00,
2013-04-18 10:50:00,9.0,4.0,-100.00,SW,236,5.0,9.0,80,0.00,,,0.22,0.000000,,2013-04-18 10:50:00,
2013-04-18 11:12:00,9.0,4.0,-100.00,SW,236,5.0,9.0,80,0.00,,,0.22,0.000000,,2013-04-18 11:12:00,
2013-04-18 11:22:00,9.0,4.0,-100.00,SW,236,5.0,9.0,80,0.00,,,0.22,0.000000,,2013-04-18 11:22:00,
2013-04-18 11:32:00,9.0,4.0,-100.00,SW,236,5.0,9.0,80,0.00,,,0.22,0.000000,,2013-04-18 11:32:00,
2013-04-18 11:42:00,9.0,4.0,-100.00,SW,236,5.0,9.0,80,0.00,,,0.22,0.000000,,2013-04-18 11:42:00,
2013-04-18 11:50:00,8.0,3.0,-100.00,SW,230,3.0,6.0,81,0.00,,,0.22,0.000000,,2013-04-18 11:50:00,
2013-04-18 12:12:00,8.0,3.0,-100.00,SW,230,3.0,6.0,81,0.00,,,0.22,0.000000,,2013-04-18 12:12:00,
2013-04-18 12:22:00,8.0,3.0,-100.00,SW,230,3.0,6.0,81,0.00,,,0.22,0.000000,,2013-04-18 12:22:00,
2013-04-18 12:32:00,8.0,3.0,-100.00,SW,230,3.0,6.0,81,0.00,,,0.22,0.000000,,2013-04-18 12:32:00,
2013-04-18 12:42:00,8.0,3.0,-100.00,SW,230,3.0,6.0,81,0.00,,,0.22,0.000000,,2013-04-18 12:42:00,
2013-04-18 12:50:00,8.0,4.0,-100.00,WSW,246,2.0,6.0,82,0.00,,,0.22,3.000000,,2013-04-18 12:50:00,
2013-04-18 13:22:00,8.0,4.0,-100.00,WSW,246,2.0,6.0,82,0.00,,,0.22,3.000000,,2013-04-18 13:22:00,
2013-04-18 13:32:00,8.0,4.0,-100.00,WSW,246,2.0,6.0,82,0.00,,,0.22,3.000000,,2013-04-18 13:32:00,
2013-04-18 13:42:00,8.0,4.0,-100.00,WSW,246,2.0,6.0,82,0.00,,,0.22,3.000000,,2013-04-18 13:42:00,
2013-04-18 13:50:00,19.0,11.0,-100.00,NNW,343,5.0,10.0,70,0.00,,,0.22,119.000000,,2013-04-18 13:50:00,
2013-04-18 14:22:00,19.0,11.0,-100.00,NNW,343,5.0,10.0,70,0.00,,,0.22,119.000000,,2013-04-18 14:22:00,
2013-04-18 14:32:00,19.0,11.0,-100.00,NNW,343,5.0,10.0,70,0.00,,,0.22,119.000000,,2013-04-18 14:32:00,
2013-04-18 14:42:00,19.0,11.0,-100.00,NNW,343,5.0,10.0,70,0.00,,,0.22,119.000000,,2013-04-18 14:42:00,
2013-04-18 14:50:00,22.0,11.0,-100.00,NNW,345,7.0,14.0,63,0.00,,,0.22,375.000000,,2013-04-18 14:50:00,
2013-04-18 15:22:00,22.0,11.0,-100.00,NNW,345,7.0,14.0,63,0.00,,,0.22,375.000000,,2013-04-18 15:22:00,
2013-04-18 15:33:00,22.0,11.0,-100.00,NNW,345,7.0,14.0,63,0.00,,,0.22,375.000000,,2013-04-18 15:33:00,
2013-04-18 15:42:00,22.0,11.0,-100.00,NNW,345,7.0,14.0,63,0.00,,,0.22,375.000000,,2013-04-18 15:42:00,
2013-04-18 15:50:00,25.0,12.0,-100.00,NNE,12,6.0,15.0,56,0.01,,,0.23,664.000000,,2013-04-18 15:50:00,
2013-04-18 16:22:00,25.0,12.0,-100.00,NNE,12,6.0,15.0,56,0.01,,,0.23,664.000000,,2013-04-18 16:22:00,
2013-04-18 16:33:00,25.0,12.0,-100.00,NNE,12,6.0,15.0,56,0.01,,,0.23,664.000000,,2013-04-18 16:33:00,
2013-04-18 16:42:00,25.0,12.0,-100.00,NNE,12,6.0,15.0,56,0.01,,,0.23,664.000000,,2013-04-18 16:42:00,
2013-04-18 16:50:00,26.0,10.0,-100.00,NNE,24,11.0,17.0,50,0.01,,,0.24,894.000000,,2013-04-18 16:50:00,
2013-04-18 17:12:00,26.0,10.0,-100.00,NNE,24,11.0,17.0,50,0.01,,,0.24,894.000000,,2013-04-18 17:12:00,
2013-04-18 17:22:00,26.0,10.0,-100.00,NNE,24,11.0,17.0,50,0.01,,,0.24,894.000000,,2013-04-18 17:22:00,
2013-04-18 17:33:00,26.0,10.0,-100.00,NNE,24,11.0,17.0,50,0.01,,,0.24,894.000000,,2013-04-18 17:33:00,
2013-04-18 17:42:00,26.0,10.0,-100.00,NNE,24,11.0,17.0,50,0.01,,,0.24,894.000000,,2013-04-18 17:42:00,
2013-04-18 17:50:00,26.0,11.0,-100.00,NNE,27,9.0,16.0,53,0.02,,,0.26,974.000000,,2013-04-18 17:50:00,
2013-04-18 18:22:00,26.0,11.0,-100.00,NNE,27,9.0,16.0,53,0.02,,,0.26,974.000000,,2013-04-18 18:22:00,
2013-04-18 18:32:00,26.0,11.0,-100.00,NNE,27,9.0,16.0,53,0.02,,,0.26,974.000000,,2013-04-18 18:32:00,
2013-04-18 18:42:00,26.0,11.0,-100.00,NNE,27,9.0,16.0,53,0.02,,,0.26,974.000000,,2013-04-18 18:42:00,
2013-04-18 18:50:00,26.0,9.0,-100.00,NNE,21,8.0,17.0,48,0.00,,,0.23,685.000000,,2013-04-18 18:50:00,
2013-04-18 19:22:00,26.0,9.0,-100.00,NNE,21,8.0,17.0,48,0.00,,,0.23,685.000000,,2013-04-18 19:22:00,
2013-04-18 19:32:00,26.0,9.0,-100.00,NNE,21,8.0,17.0,48,0.00,,,0.23,685.000000,,2013-04-18 19:32:00,
2013-04-18 19:42:00,26.0,9.0,-100.00,NNE,21,8.0,17.0,48,0.00,,,0.23,685.000000,,2013-04-18 19:42:00,
2013-04-18 19:50:00,27.0,10.0,-100.00,NNW,346,8.0,16.0,48,0.00,,,0.13,636.000000,,2013-04-18 19:50:00,
2013-04-18 20:12:00,27.0,10.0,-100.00,NNW,346,8.0,16.0,48,0.00,,,0.13,636.000000,,2013-04-18 20:12:00,
2013-04-18 20:22:00,27.0,10.0,-100.00,NNW,346,8.0,16.0,48,0.00,,,0.13,636.000000,,2013-04-18 20:22:00,
2013-04-18 20:32:00,27.0,10.0,-100.00,NNW,346,8.0,16.0,48,0.00,,,0.13,636.000000,,2013-04-18 20:32:00,
2013-04-18 20:42:00,27.0,10.0,-100.00,NNW,346,8.0,16.0,48,0.00,,,0.13,636.000000,,2013-04-18 20:42:00,
2013-04-18 20:50:00,30.0,15.0,-100.00,NNE,14,7.0,16.0,52,0.02,,,-99.99,1076.000000,,2013-04-18 20:50:00,
2013-04-18 21:22:00,30.0,15.0,-100.00,NNE,14,7.0,16.0,52,0.02,,,-99.99,1076.000000,,2013-04-18 21:22:00,
2013-04-18 21:32:00,30.0,15.0,-100.00,NNE,14,7.0,16.0,52,0.02,,,-99.99,1076.000000,,2013-04-18 21:32:00,
2013-04-18 21:43:00,30.0,15.0,-100.00,NNE,14,7.0,16.0,52,0.02,,,-99.99,1076.000000,,2013-04-18 21:43:00,
2013-04-18 21:50:00,30.0,12.0,-100.00,NNW,341,9.0,19.0,47,0.01,,,0.09,941.000000,,2013-04-18 21:50:00,
2013-04-18 22:22:00,30.0,12.0,-100.00,NNW,341,9.0,19.0,47,0.01,,,0.09,941.000000,,2013-04-18 22:22:00,
2013-04-18 22:32:00,30.0,12.0,-100.00,NNW,341,9.0,19.0,47,0.01,,,0.09,941.000000,,2013-04-18 22:32:00,
2013-04-18 22:42:00,30.0,12.0,-100.00,NNW,341,9.0,19.0,47,0.01,,,0.09,941.000000,,2013-04-18 22:42:00,
2013-04-18 22:50:00,31.0,13.0,-100.00,North,350,9.0,19.0,47,0.01,,,0.08,886.000000,,2013-04-18 22:50:00,
2013-04-18 23:21:00,31.0,13.0,-100.00,North,350,9.0,19.0,47,0.01,,,0.08,886.000000,,2013-04-18 23:21:00,
2013-04-18 23:32:00,31.0,13.0,-100.00,North,350,9.0,19.0,47,0.01,,,0.08,886.000000,,2013-04-18 23:32:00,
2013-04-18 23:42:00,31.0,13.0,-100.00,North,350,9.0,19.0,47,0.01,,,0.08,886.000000,,2013-04-18 23:42:00,
2013-04-18 23:50:00,30.0,12.0,-100.00,North,6,9.0,18.0,46,0.00,,,0.08,701.000000,,2013-04-18 23:50:00,